createdAt,value
2023-03-12T00:00:01.025Z,-3.50
2023-03-12T00:06:10.495Z,-3.60
2023-03-12T00:12:13.055Z,-3.60
2023-03-12T00:18:14.924Z,-3.70
2023-03-12T00:24:16.939Z,-3.70
2023-03-12T00:30:18.836Z,-3.80
2023-03-12T00:36:24.874Z,-3.80
2023-03-12T00:42:26.689Z,-3.80
2023-03-12T00:48:28.583Z,-3.80
2023-03-12T00:54:30.675Z,-3.90
2023-03-12T01:00:32.755Z,-3.80
2023-03-12T01:06:34.846Z,-3.80
2023-03-12T01:12:37.085Z,-3.80
2023-03-12T01:18:39.412Z,-3.90
2023-03-12T01:24:41.330Z,-3.90
2023-03-12T01:30:43.226Z,-3.90
2023-03-12T01:36:46.291Z,-3.90
2023-03-12T01:42:58.763Z,-3.90
2023-03-12T01:49:22.057Z,-4.00
2023-03-12T01:55:24.443Z,-4.00
2023-03-12T02:01:27.489Z,-4.00
2023-03-12T02:07:30.196Z,-4.10
2023-03-12T02:13:32.263Z,-4.10
2023-03-12T02:20:08.063Z,-4.10
2023-03-12T02:26:12.416Z,-4.10
2023-03-12T02:32:26.390Z,-4.10
2023-03-12T02:38:48.216Z,-4.10
2023-03-12T02:44:50.628Z,-4.10
2023-03-12T02:50:52.846Z,-4.10
2023-03-12T02:56:55.501Z,-4.00
2023-03-12T03:02:59.257Z,-3.80
2023-03-12T03:09:01.959Z,-3.80
2023-03-12T03:15:04.929Z,-3.60
2023-03-12T03:21:16.300Z,-3.60
2023-03-12T03:27:19.218Z,-3.50
2023-03-12T03:33:21.615Z,-3.40
2023-03-12T03:39:25.133Z,-3.40
2023-03-12T03:45:27.203Z,-3.40
2023-03-12T03:51:30.547Z,-3.50
2023-03-12T03:57:36.834Z,-3.60
2023-03-12T04:03:39.047Z,-3.70
2023-03-12T04:09:44.727Z,-3.80
2023-03-12T04:15:48.768Z,-3.90
2023-03-12T04:21:51.149Z,-3.80
2023-03-12T04:27:53.032Z,-3.90
2023-03-12T04:33:55.095Z,-3.90
2023-03-12T04:39:59.167Z,-4.00
2023-03-12T04:46:01.269Z,-4.00
2023-03-12T04:52:03.226Z,-3.90
2023-03-12T04:58:05.350Z,-3.80
2023-03-12T05:04:07.716Z,-3.70
2023-03-12T05:10:10.237Z,-3.50
2023-03-12T05:16:12.995Z,-3.30
2023-03-12T05:22:16.274Z,-3.20
2023-03-12T05:28:18.361Z,-3.10
2023-03-12T05:34:20.530Z,-3.00
2023-03-12T05:40:22.478Z,-2.90
2023-03-12T05:46:25.916Z,-2.80
2023-03-12T05:52:28.265Z,-2.70
2023-03-12T05:58:30.915Z,-2.60
2023-03-12T06:04:33.256Z,-2.40
2023-03-12T06:10:37.965Z,-2.20
2023-03-12T06:16:40.424Z,-2.00
2023-03-12T06:22:42.700Z,-1.80
2023-03-12T06:28:46.468Z,-1.50
2023-03-12T06:34:48.353Z,-1.30
2023-03-12T06:41:01.860Z,-1.00
2023-03-12T06:47:03.956Z,-0.70
2023-03-12T06:53:05.744Z,-0.60
2023-03-12T06:59:07.948Z,-0.40
2023-03-12T07:05:10.177Z,-0.10
2023-03-12T07:11:12.606Z,0.40
2023-03-12T07:17:14.419Z,0.60
2023-03-12T07:23:16.635Z,0.70
2023-03-12T07:29:18.439Z,0.80
2023-03-12T07:35:20.426Z,0.90
2023-03-12T07:41:22.307Z,1.10
2023-03-12T07:47:24.823Z,1.30
2023-03-12T07:53:26.780Z,1.50
2023-03-12T07:59:28.911Z,1.80
2023-03-12T08:05:30.809Z,2.10
2023-03-12T08:11:34.383Z,2.20
2023-03-12T08:17:36.201Z,2.60
2023-03-12T08:23:38.079Z,2.90
2023-03-12T08:29:40.597Z,3.10
2023-03-12T08:35:42.522Z,3.20
2023-03-12T08:41:44.318Z,3.20
2023-03-12T08:47:46.211Z,3.60
2023-03-12T08:53:48.023Z,3.70
2023-03-12T08:59:49.819Z,3.80
2023-03-12T09:06:01.863Z,3.70
2023-03-12T09:12:03.837Z,3.70
2023-03-12T09:18:05.701Z,3.60
2023-03-12T09:24:07.829Z,3.70
2023-03-12T09:30:15.719Z,4.10
2023-03-12T09:36:17.950Z,4.60
2023-03-12T09:42:30.282Z,4.60
2023-03-12T09:48:35.298Z,4.50
2023-03-12T09:54:52.274Z,4.60
2023-03-12T10:01:00.939Z,4.60
2023-03-12T10:07:11.524Z,4.40
2023-03-12T10:13:40.764Z,4.60
2023-03-12T10:19:59.686Z,4.70
2023-03-12T10:26:23.158Z,4.60
2023-03-12T10:32:36.102Z,4.70
2023-03-12T10:38:37.890Z,5.00
2023-03-12T10:44:40.006Z,5.20
2023-03-12T10:50:41.876Z,5.20
2023-03-12T10:56:51.223Z,5.40
2023-03-12T11:03:05.375Z,5.90
2023-03-12T11:09:17.693Z,5.40
2023-03-12T11:15:21.242Z,5.40
2023-03-12T11:21:23.646Z,6.00
2023-03-12T11:27:36.941Z,6.00
2023-03-12T11:33:38.867Z,5.60
2023-03-12T11:39:43.327Z,5.70
2023-03-12T11:46:17.353Z,5.40
2023-03-12T11:52:46.077Z,4.80
2023-03-12T11:59:09.887Z,4.60
2023-03-12T12:05:26.745Z,4.60
2023-03-12T12:11:45.243Z,4.70
2023-03-12T12:18:04.596Z,4.50
2023-03-12T12:24:32.473Z,4.60
2023-03-12T12:31:04.148Z,4.50
2023-03-12T12:37:30.309Z,4.20
2023-03-12T12:43:47.547Z,4.00
2023-03-12T12:49:54.343Z,3.80
2023-03-12T12:56:02.056Z,3.60
2023-03-12T13:02:05.856Z,3.60
2023-03-12T13:08:11.293Z,3.40
2023-03-12T13:14:19.669Z,3.40
2023-03-12T13:20:24.142Z,3.20
2023-03-12T13:26:42.849Z,3.00
2023-03-12T13:32:47.683Z,3.10
2023-03-12T13:39:06.829Z,3.00
2023-03-12T13:45:23.604Z,3.10
2023-03-12T13:51:26.700Z,3.00
2023-03-12T13:57:46.850Z,3.20
2023-03-12T14:03:53.330Z,3.30
2023-03-12T14:10:13.012Z,3.30
2023-03-12T14:16:36.739Z,3.30
2023-03-12T14:22:41.393Z,3.10
2023-03-12T14:28:44.704Z,3.20
2023-03-12T14:35:08.324Z,3.10
2023-03-12T14:41:27.808Z,3.20
2023-03-12T14:47:30.069Z,3.20
2023-03-12T14:53:37.489Z,3.30
2023-03-12T14:59:39.592Z,3.30
2023-03-12T15:05:48.898Z,3.40
2023-03-12T15:11:54.266Z,3.40
2023-03-12T15:17:56.569Z,3.50
2023-03-12T15:23:58.704Z,3.50
2023-03-12T15:30:01.155Z,3.70
2023-03-12T15:36:15.023Z,3.60
2023-03-12T15:42:19.818Z,3.70
2023-03-12T15:48:24.419Z,3.70
2023-03-12T15:54:29.660Z,3.70
2023-03-12T16:00:40.967Z,3.70
2023-03-12T16:06:44.254Z,3.80
2023-03-12T16:12:47.582Z,3.70
2023-03-12T16:18:49.486Z,3.90
2023-03-12T16:24:51.569Z,3.90
2023-03-12T16:30:53.498Z,3.90
2023-03-12T16:36:56.771Z,4.10
2023-03-12T16:43:02.719Z,4.20
2023-03-12T16:49:04.603Z,4.20
2023-03-12T16:55:06.905Z,4.20
2023-03-12T17:01:17.360Z,4.10
2023-03-12T17:07:19.154Z,4.30
2023-03-12T17:13:29.029Z,4.30
2023-03-12T17:19:30.950Z,4.50
2023-03-12T17:25:35.649Z,4.40
2023-03-12T17:31:37.660Z,4.40
2023-03-12T17:37:39.556Z,4.40
2023-03-12T17:43:41.867Z,4.40
2023-03-12T17:49:43.841Z,4.40
2023-03-12T17:55:47.368Z,4.60
2023-03-12T18:01:49.164Z,4.80
2023-03-12T18:07:51.495Z,4.80
2023-03-12T18:13:53.462Z,4.90
2023-03-12T18:19:55.384Z,5.20
2023-03-12T18:25:57.189Z,5.40
2023-03-12T18:31:58.985Z,5.40
2023-03-12T18:38:01.012Z,5.40
2023-03-12T18:44:02.813Z,5.60
2023-03-12T18:50:08.409Z,5.70
2023-03-12T18:56:10.398Z,5.80
2023-03-12T19:02:12.379Z,5.90
2023-03-12T19:08:14.992Z,5.80
2023-03-12T19:14:17.165Z,5.90
2023-03-12T19:20:19.232Z,5.90
2023-03-12T19:26:21.020Z,5.90
2023-03-12T19:32:25.376Z,5.90
2023-03-12T19:38:30.190Z,5.90
2023-03-12T19:44:35.322Z,5.90
2023-03-12T19:50:37.065Z,5.90
2023-03-12T19:56:38.810Z,6.00
2023-03-12T20:02:41.246Z,6.00
2023-03-12T20:08:44.495Z,6.00
2023-03-12T20:14:46.593Z,6.10
2023-03-12T20:20:48.372Z,6.00
2023-03-12T20:26:50.136Z,6.00
2023-03-12T20:32:51.979Z,6.00
2023-03-12T20:38:53.874Z,6.00
2023-03-12T20:44:55.614Z,6.00
2023-03-12T20:50:57.443Z,6.10
2023-03-12T20:56:59.165Z,6.40
2023-03-12T21:03:00.934Z,6.40
2023-03-12T21:09:03.373Z,6.50
2023-03-12T21:15:07.321Z,6.50
2023-03-12T21:21:09.523Z,6.60
2023-03-12T21:27:12.987Z,6.60
2023-03-12T21:33:14.768Z,6.60
2023-03-12T21:39:17.296Z,6.60
2023-03-12T21:45:22.120Z,6.70
2023-03-12T21:51:26.009Z,6.70
2023-03-12T21:57:28.594Z,6.70
2023-03-12T22:03:30.336Z,6.70
2023-03-12T22:09:32.074Z,6.80
2023-03-12T22:15:33.893Z,6.80
2023-03-12T22:21:35.846Z,6.70
2023-03-12T22:27:37.600Z,6.90
2023-03-12T22:33:39.431Z,7.00
2023-03-12T22:39:43.162Z,7.10
2023-03-12T22:45:44.987Z,7.10
2023-03-12T22:51:46.751Z,7.20
2023-03-12T22:57:48.486Z,7.30
2023-03-12T23:03:51.196Z,7.30
2023-03-12T23:09:52.946Z,7.30
2023-03-12T23:15:54.784Z,7.40
2023-03-12T23:21:56.595Z,7.40
2023-03-12T23:27:58.367Z,7.50
2023-03-12T23:34:00.145Z,7.40
2023-03-12T23:40:02.056Z,7.40
2023-03-12T23:46:05.731Z,7.40
2023-03-12T23:52:07.528Z,7.40
2023-03-12T23:58:09.555Z,7.40
